createdAt,value
2019-04-22T00:01:31.238Z,16.60
2019-04-22T00:04:04.878Z,16.70
2019-04-22T00:06:51.831Z,16.80
2019-04-22T00:09:25.200Z,16.60
2019-04-22T00:11:54.585Z,16.70
2019-04-22T00:14:20.433Z,16.60
2019-04-22T00:17:00.744Z,16.40
2019-04-22T00:19:32.095Z,16.40
2019-04-22T00:22:05.700Z,16.50
2019-04-22T00:24:27.277Z,16.40
2019-04-22T00:26:58.937Z,16.30
2019-04-22T00:32:02.039Z,16.30
2019-04-22T00:34:27.031Z,16.30
2019-04-22T00:37:00.963Z,16.40
2019-04-22T00:39:38.405Z,16.30
2019-04-22T00:42:01.958Z,16.30
2019-04-22T00:47:12.190Z,16.30
2019-04-22T00:50:06.672Z,16.30
2019-04-22T00:54:37.685Z,16.20
2019-04-22T00:57:01.451Z,16.00
2019-04-22T00:59:40.371Z,16.00
2019-04-22T01:02:07.650Z,15.90
2019-04-22T01:04:44.215Z,15.90
2019-04-22T01:07:09.280Z,15.90
2019-04-22T01:09:41.193Z,16.00
2019-04-22T01:12:07.568Z,15.90
2019-04-22T01:14:35.290Z,15.90
2019-04-22T01:17:07.259Z,15.80
2019-04-22T01:19:45.189Z,15.70
2019-04-22T01:22:13.151Z,15.60
2019-04-22T01:24:38.729Z,15.50
2019-04-22T01:27:08.125Z,15.50
2019-04-22T01:29:37.570Z,15.60
2019-04-22T01:31:53.108Z,15.50
2019-04-22T01:34:36.174Z,15.40
2019-04-22T01:37:08.049Z,15.50
2019-04-22T01:39:50.096Z,15.50
2019-04-22T01:42:15.761Z,15.50
2019-04-22T01:44:45.484Z,15.40
2019-04-22T01:47:26.666Z,15.40
2019-04-22T01:49:49.526Z,15.40
2019-04-22T01:55:04.306Z,15.30
2019-04-22T01:57:17.206Z,15.20
2019-04-22T01:59:41.598Z,15.10
2019-04-22T02:02:22.184Z,15.20
2019-04-22T02:04:53.316Z,15.30
2019-04-22T02:07:28.055Z,15.40
2019-04-22T02:12:29.931Z,15.20
2019-04-22T02:14:52.233Z,15.20
2019-04-22T02:17:26.931Z,15.10
2019-04-22T02:19:59.090Z,15.00
2019-04-22T02:22:46.409Z,15.00
2019-04-22T02:25:18.546Z,15.00
2019-04-22T02:27:35.189Z,15.00
2019-04-22T02:29:51.804Z,14.80
2019-04-22T02:33:08.181Z,14.70
2019-04-22T02:37:46.102Z,14.80
2019-04-22T02:42:55.864Z,14.70
2019-04-22T02:44:58.536Z,14.70
2019-04-22T02:47:51.993Z,14.60
2019-04-22T02:52:39.473Z,14.60
2019-04-22T02:57:47.098Z,14.50
2019-04-22T03:00:18.139Z,14.50
2019-04-22T03:05:12.963Z,14.40
2019-04-22T03:07:41.047Z,14.40
2019-04-22T03:10:09.953Z,14.30
2019-04-22T03:12:33.257Z,14.30
2019-04-22T03:15:07.490Z,14.40
2019-04-22T03:17:39.053Z,14.50
2019-04-22T03:22:34.443Z,14.50
2019-04-22T03:25:42.809Z,14.30
2019-04-22T03:27:40.237Z,14.10
2019-04-22T03:30:47.617Z,14.20
2019-04-22T03:40:26.001Z,14.10
2019-04-22T03:45:26.665Z,14.10
2019-04-22T03:50:20.632Z,13.70
2019-04-22T03:52:47.071Z,13.90
2019-04-22T03:55:15.616Z,13.90
2019-04-22T04:02:46.985Z,13.90
2019-04-22T04:06:37.018Z,13.70
2019-04-22T04:15:18.644Z,13.70
2019-04-22T04:28:24.502Z,13.80
2019-04-22T04:32:58.931Z,13.70
2019-04-22T04:35:39.151Z,13.60
2019-04-22T04:37:52.403Z,13.60
2019-04-22T04:43:05.672Z,13.50
2019-04-22T04:45:31.990Z,13.50
2019-04-22T04:55:23.972Z,13.40
2019-04-22T04:58:13.796Z,13.30
2019-04-22T05:02:55.902Z,13.30
2019-04-22T05:05:29.581Z,13.20
2019-04-22T05:18:16.619Z,13.50
2019-04-22T05:22:44.819Z,13.60
2019-04-22T05:25:17.925Z,13.60
2019-04-22T05:27:50.962Z,13.60
2019-04-22T05:32:52.755Z,13.80
2019-04-22T05:35:23.036Z,13.80
2019-04-22T05:37:51.904Z,13.80
2019-04-22T05:42:54.589Z,13.80
2019-04-22T05:47:55.047Z,14.00
2019-04-22T05:50:21.890Z,13.80
2019-04-22T05:52:55.372Z,13.80
2019-04-22T05:55:33.166Z,14.00
2019-04-22T05:57:57.649Z,14.00
2019-04-22T06:00:30.953Z,14.00
2019-04-22T06:02:56.801Z,14.00
2019-04-22T06:05:32.692Z,14.00
2019-04-22T06:08:01.499Z,14.00
2019-04-22T06:10:33.451Z,14.10
2019-04-22T06:12:59.224Z,14.20
2019-04-22T06:15:36.188Z,14.30
2019-04-22T06:18:16.233Z,14.40
2019-04-22T06:20:37.305Z,14.30
2019-04-22T06:23:12.440Z,14.50
2019-04-22T06:26:05.246Z,14.70
2019-04-22T06:28:16.031Z,14.60
2019-04-22T06:30:41.738Z,14.80
2019-04-22T06:35:45.696Z,14.80
2019-04-22T06:40:46.762Z,15.30
2019-04-22T06:45:39.944Z,15.60
2019-04-22T06:50:52.850Z,16.00
2019-04-22T06:53:29.803Z,16.10
2019-04-22T06:55:45.637Z,16.30
2019-04-22T06:58:15.113Z,16.40
2019-04-22T07:05:46.395Z,17.00
2019-04-22T07:08:45.706Z,17.10
2019-04-22T07:10:47.760Z,17.20
2019-04-22T07:13:23.254Z,17.30
2019-04-22T07:20:54.675Z,17.60
2019-04-22T07:23:24.819Z,17.70
2019-04-22T07:25:45.205Z,17.80
2019-04-22T07:28:15.784Z,18.00
2019-04-22T07:30:44.835Z,18.00
2019-04-22T07:33:22.904Z,17.90
2019-04-22T07:38:23.725Z,18.10
2019-04-22T07:40:50.120Z,18.10
2019-04-22T07:43:32.472Z,18.20
2019-04-22T07:45:49.155Z,18.30
2019-04-22T07:50:56.043Z,18.50
2019-04-22T07:53:24.619Z,18.50
2019-04-22T07:55:53.272Z,18.50
2019-04-22T07:58:27.406Z,18.70
2019-04-22T08:00:59.108Z,18.80
2019-04-22T08:03:28.931Z,18.60
2019-04-22T08:08:27.171Z,18.70
2019-04-22T08:10:56.741Z,19.00
2019-04-22T08:13:25.281Z,19.10
2019-04-22T08:15:58.442Z,19.30
2019-04-22T08:18:28.918Z,19.40
2019-04-22T08:20:54.098Z,19.60
2019-04-22T08:25:55.806Z,19.90
2019-04-22T08:28:32.019Z,19.90
2019-04-22T08:31:01.919Z,20.10
2019-04-22T08:33:30.653Z,20.40
2019-04-22T08:38:46.932Z,20.90
2019-04-22T08:41:28.345Z,21.20
2019-04-22T08:46:27.450Z,21.70
2019-04-22T08:48:49.564Z,22.00
2019-04-22T08:51:21.086Z,21.90
2019-04-22T08:53:56.260Z,21.80
2019-04-22T08:56:29.476Z,22.00
2019-04-22T08:58:57.275Z,22.40
2019-04-22T09:01:23.766Z,23.20
2019-04-22T09:03:52.686Z,22.60
2019-04-22T09:06:34.127Z,23.50
2019-04-22T09:08:55.214Z,23.60
2019-04-22T09:11:31.269Z,23.20
2019-04-22T09:16:28.267Z,24.50
2019-04-22T09:18:55.979Z,24.10
2019-04-22T09:21:27.648Z,23.90
2019-04-22T09:24:00.773Z,24.20
2019-04-22T09:26:25.460Z,24.90
2019-04-22T09:28:59.835Z,24.80
2019-04-22T09:33:47.656Z,24.80
2019-04-22T09:36:29.537Z,25.10
2019-04-22T09:38:52.681Z,24.80
2019-04-22T09:41:27.209Z,25.10
2019-04-22T09:44:01.161Z,25.00
2019-04-22T09:46:32.719Z,24.80
2019-04-22T09:48:59.021Z,24.70
2019-04-22T09:51:26.852Z,25.40
2019-04-22T09:54:00.705Z,25.80
2019-04-22T09:58:57.021Z,25.30
2019-04-22T10:11:36.120Z,25.40
2019-04-22T10:14:01.636Z,25.00
2019-04-22T10:16:37.165Z,24.90
2019-04-22T10:24:03.524Z,24.40
2019-04-22T10:26:34.572Z,24.60
2019-04-22T10:29:06.925Z,24.50
2019-04-22T10:33:53.286Z,24.50
2019-04-22T10:36:07.864Z,24.50
2019-04-22T10:38:36.801Z,24.70
2019-04-22T10:41:05.439Z,24.80
2019-04-22T10:43:34.933Z,24.70
2019-04-22T10:46:04.107Z,24.50
2019-04-22T10:48:32.740Z,24.60
2019-04-22T10:51:01.240Z,25.20
2019-04-22T10:53:31.148Z,25.10
2019-04-22T10:56:00.973Z,25.10
2019-04-22T10:58:30.798Z,25.30
2019-04-22T11:01:00.168Z,24.70
2019-04-22T11:03:28.886Z,25.30
2019-04-22T11:05:59.081Z,25.60
2019-04-22T11:08:33.903Z,25.50
2019-04-22T11:11:12.426Z,25.60
2019-04-22T11:13:28.435Z,25.60
2019-04-22T11:15:58.286Z,26.10
2019-04-22T11:18:27.422Z,25.80
2019-04-22T11:20:56.164Z,26.00
2019-04-22T11:23:24.800Z,26.20
2019-04-22T11:25:54.069Z,27.10
2019-04-22T11:28:23.366Z,26.70
2019-04-22T11:30:52.343Z,26.50
2019-04-22T11:33:20.973Z,26.20
2019-04-22T11:35:50.119Z,26.50
2019-04-22T11:38:19.133Z,27.30
2019-04-22T11:40:52.316Z,26.10
2019-04-22T11:43:17.922Z,27.00
2019-04-22T11:45:47.103Z,27.30
2019-04-22T11:48:15.706Z,26.90
2019-04-22T11:50:46.159Z,26.50
2019-04-22T11:53:14.836Z,26.20
2019-04-22T11:55:44.610Z,27.20
2019-04-22T11:58:14.775Z,27.10
2019-04-22T12:00:45.127Z,26.40
2019-04-22T12:03:14.754Z,26.20
2019-04-22T12:05:43.920Z,27.00
2019-04-22T12:08:13.207Z,27.00
2019-04-22T12:10:49.435Z,26.60
2019-04-22T12:13:12.358Z,26.50
2019-04-22T12:15:40.914Z,26.50
2019-04-22T12:18:11.183Z,26.70
2019-04-22T12:20:41.408Z,26.60
2019-04-22T12:23:11.371Z,26.70
2019-04-22T12:25:48.629Z,26.90
2019-04-22T12:28:12.905Z,27.40
2019-04-22T12:30:41.805Z,26.70
2019-04-22T12:33:11.629Z,27.10
2019-04-22T12:35:40.511Z,28.00
2019-04-22T12:38:11.153Z,27.30
2019-04-22T12:40:48.669Z,27.40
2019-04-22T12:43:11.938Z,27.30
2019-04-22T12:45:40.334Z,27.60
2019-04-22T12:48:10.099Z,27.50
2019-04-22T12:50:43.511Z,26.90
2019-04-22T12:53:13.855Z,27.00
2019-04-22T12:55:39.741Z,27.00
2019-04-22T12:58:09.625Z,27.20
2019-04-22T13:00:38.556Z,26.90
2019-04-22T13:03:07.359Z,27.00
2019-04-22T13:05:37.462Z,27.20
2019-04-22T13:08:07.572Z,26.90
2019-04-22T13:10:45.697Z,26.60
2019-04-22T13:13:07.139Z,26.60
2019-04-22T13:15:37.032Z,27.00
2019-04-22T13:18:16.979Z,26.60
2019-04-22T13:20:36.531Z,26.70
2019-04-22T13:23:05.208Z,26.50
2019-04-22T13:25:34.705Z,26.80
2019-04-22T13:28:04.897Z,26.50
2019-04-22T13:30:34.701Z,26.30
2019-04-22T13:33:03.311Z,25.90
2019-04-22T13:35:31.942Z,25.70
2019-04-22T13:38:01.254Z,25.70
2019-04-22T13:40:30.813Z,25.90
2019-04-22T13:43:00.780Z,25.90
2019-04-22T13:45:29.801Z,26.10
2019-04-22T13:48:16.710Z,26.10
2019-04-22T13:50:56.317Z,26.30
2019-04-22T13:58:15.698Z,27.00
2019-04-22T14:00:34.416Z,26.80
2019-04-22T14:03:10.700Z,26.70
2019-04-22T14:05:42.523Z,26.60
2019-04-22T14:08:12.688Z,26.30
2019-04-22T14:10:42.620Z,26.50
2019-04-22T14:13:12.110Z,26.90
2019-04-22T14:15:43.575Z,26.80
2019-04-22T14:18:11.036Z,26.70
2019-04-22T14:20:40.872Z,26.40
2019-04-22T14:23:10.263Z,26.30
2019-04-22T14:25:41.042Z,26.30
2019-04-22T14:28:15.059Z,26.00
2019-04-22T14:30:39.976Z,26.40
2019-04-22T14:33:09.759Z,26.40
2019-04-22T14:35:39.782Z,26.60
2019-04-22T14:38:08.805Z,26.60
2019-04-22T14:40:40.931Z,26.40
2019-04-22T14:43:28.999Z,26.30
2019-04-22T14:46:06.999Z,26.20
2019-04-22T14:48:35.943Z,26.40
2019-04-22T14:50:56.021Z,26.50
2019-04-22T14:53:30.879Z,26.40
2019-04-22T14:55:40.494Z,26.40
2019-04-22T14:58:09.256Z,26.20
2019-04-22T15:00:38.208Z,26.30
2019-04-22T15:03:08.185Z,26.30
2019-04-22T15:05:37.547Z,26.30
2019-04-22T15:08:07.087Z,26.20
2019-04-22T15:10:36.210Z,26.10
2019-04-22T15:13:05.420Z,26.20
2019-04-22T15:15:43.197Z,26.50
2019-04-22T15:18:26.056Z,26.50
2019-04-22T15:21:00.652Z,26.60
2019-04-22T15:23:30.879Z,26.50
2019-04-22T15:25:59.544Z,26.20
2019-04-22T15:28:29.252Z,26.40
2019-04-22T15:30:59.355Z,26.40
2019-04-22T15:33:29.522Z,26.40
2019-04-22T15:35:59.041Z,26.20
2019-04-22T15:38:28.243Z,26.20
2019-04-22T15:40:56.855Z,26.10
2019-04-22T15:43:27.986Z,26.10
2019-04-22T15:45:57.139Z,26.10
2019-04-22T15:48:27.112Z,26.10
2019-04-22T15:50:55.791Z,26.20
2019-04-22T15:53:25.415Z,26.00
2019-04-22T15:55:54.669Z,26.00
2019-04-22T15:58:23.869Z,25.90
2019-04-22T16:01:03.949Z,25.80
2019-04-22T16:03:22.913Z,25.70
2019-04-22T16:05:52.251Z,25.70
2019-04-22T16:08:21.355Z,25.50
2019-04-22T16:10:51.549Z,25.50
2019-04-22T16:13:24.438Z,25.50
2019-04-22T16:15:50.578Z,25.40
2019-04-22T16:18:20.139Z,25.20
2019-04-22T16:20:50.181Z,25.30
2019-04-22T16:23:28.199Z,25.30
2019-04-22T16:25:59.092Z,25.20
2019-04-22T16:28:29.166Z,25.20
2019-04-22T16:30:59.466Z,25.20
2019-04-22T16:33:28.530Z,25.40
2019-04-22T16:35:58.551Z,25.30
2019-04-22T16:38:27.231Z,25.20
2019-04-22T16:40:56.818Z,25.20
2019-04-22T16:43:26.575Z,25.00
2019-04-22T16:45:55.853Z,24.90
2019-04-22T16:48:25.558Z,25.00
2019-04-22T16:50:55.007Z,25.00
2019-04-22T16:53:25.290Z,24.80
2019-04-22T16:55:54.887Z,24.80
2019-04-22T16:58:25.035Z,24.80
2019-04-22T17:00:54.673Z,24.70
2019-04-22T17:03:34.588Z,24.70
2019-04-22T17:06:17.383Z,24.80
2019-04-22T17:08:46.702Z,24.70
2019-04-22T17:11:16.017Z,24.50
2019-04-22T17:13:46.184Z,24.60
2019-04-22T17:16:16.028Z,24.50
2019-04-22T17:18:45.525Z,24.50
2019-04-22T17:21:15.006Z,24.40
2019-04-22T17:23:43.596Z,24.50
2019-04-22T17:26:12.714Z,24.40
2019-04-22T17:28:41.713Z,24.30
2019-04-22T17:31:10.859Z,24.30
2019-04-22T17:33:39.525Z,24.30
2019-04-22T17:36:10.175Z,24.10
2019-04-22T17:38:48.676Z,24.00
2019-04-22T17:41:23.138Z,24.00
2019-04-22T17:44:21.854Z,23.90
2019-04-22T17:46:40.444Z,23.70
2019-04-22T17:49:26.273Z,23.80
2019-04-22T17:52:10.737Z,23.90
2019-04-22T17:54:42.089Z,23.80
2019-04-22T17:57:09.749Z,23.80
2019-04-22T17:59:42.068Z,23.60
2019-04-22T18:02:12.922Z,23.60
2019-04-22T18:04:23.352Z,23.40
2019-04-22T18:07:18.607Z,23.30
2019-04-22T18:10:10.982Z,23.40
2019-04-22T18:12:20.414Z,23.30
2019-04-22T18:14:49.710Z,23.30
2019-04-22T18:17:17.364Z,23.20
2019-04-22T18:19:39.940Z,23.20
2019-04-22T18:22:07.632Z,23.20
2019-04-22T18:24:32.462Z,23.10
2019-04-22T18:27:31.162Z,23.00
2019-04-22T18:29:43.399Z,23.00
2019-04-22T18:32:07.403Z,22.90
2019-04-22T18:34:39.028Z,22.80
2019-04-22T18:37:13.004Z,22.70
2019-04-22T18:39:46.363Z,22.70
2019-04-22T18:42:10.734Z,22.60
2019-04-22T18:44:49.393Z,22.60
2019-04-22T18:47:14.624Z,22.50
2019-04-22T18:49:41.800Z,22.50
2019-04-22T18:52:19.633Z,22.30
2019-04-22T18:54:55.244Z,22.30
2019-04-22T18:57:23.270Z,22.20
2019-04-22T18:59:37.954Z,22.20
2019-04-22T19:02:08.999Z,22.00
2019-04-22T19:04:44.377Z,21.90
2019-04-22T19:07:28.644Z,21.80
2019-04-22T19:10:04.885Z,21.80
2019-04-22T19:12:33.758Z,21.80
2019-04-22T19:15:03.776Z,21.60
2019-04-22T19:20:03.126Z,21.50
2019-04-22T19:22:29.836Z,21.50
2019-04-22T19:24:54.956Z,21.40
2019-04-22T19:27:26.612Z,21.40
2019-04-22T19:30:04.323Z,21.30
2019-04-22T19:32:34.016Z,21.30
2019-04-22T19:34:59.965Z,21.20
2019-04-22T19:37:28.417Z,21.20
2019-04-22T19:40:09.590Z,21.10
2019-04-22T19:42:38.683Z,21.00
2019-04-22T19:45:04.518Z,21.00
2019-04-22T19:47:50.097Z,20.90
2019-04-22T19:50:12.868Z,20.70
2019-04-22T19:52:35.542Z,20.80
2019-04-22T19:55:07.913Z,20.70
2019-04-22T19:57:32.575Z,20.70
2019-04-22T20:00:18.469Z,20.60
2019-04-22T20:02:51.175Z,20.50
2019-04-22T20:05:37.201Z,20.50
2019-04-22T20:08:07.318Z,20.50
2019-04-22T20:10:33.101Z,20.50
2019-04-22T20:13:07.629Z,20.50
2019-04-22T20:15:30.238Z,20.40
2019-04-22T20:20:42.230Z,20.30
2019-04-22T20:23:01.820Z,20.30
2019-04-22T20:25:38.961Z,20.30
2019-04-22T20:28:13.236Z,20.20
2019-04-22T20:30:39.673Z,20.00
2019-04-22T20:33:01.913Z,20.00
2019-04-22T20:35:43.685Z,19.90
2019-04-22T20:38:08.807Z,19.90
2019-04-22T20:40:39.987Z,19.80
2019-04-22T20:43:17.626Z,19.80
2019-04-22T20:45:45.905Z,19.70
2019-04-22T20:48:03.670Z,19.70
2019-04-22T20:50:48.176Z,19.60
2019-04-22T20:53:18.733Z,19.70
2019-04-22T20:55:43.569Z,19.60
2019-04-22T20:58:18.029Z,19.60
2019-04-22T21:00:40.279Z,19.60
2019-04-22T21:03:05.394Z,19.60
2019-04-22T21:05:38.184Z,19.60
2019-04-22T21:08:18.997Z,19.40
2019-04-22T21:10:44.813Z,19.40
2019-04-22T21:13:12.806Z,19.40
2019-04-22T21:15:49.353Z,19.30
2019-04-22T21:18:19.110Z,19.20
2019-04-22T21:20:59.203Z,19.20
2019-04-22T21:23:19.855Z,19.10
2019-04-22T21:25:54.341Z,19.10
2019-04-22T21:28:21.658Z,19.00
2019-04-22T21:30:53.512Z,19.00
2019-04-22T21:33:18.426Z,19.00
2019-04-22T21:36:12.162Z,19.00
2019-04-22T21:38:31.079Z,18.80
2019-04-22T21:40:56.390Z,18.80
2019-04-22T21:43:30.132Z,18.80
2019-04-22T21:45:57.269Z,18.80
2019-04-22T21:48:31.146Z,18.80
2019-04-22T21:50:59.867Z,18.60
2019-04-22T21:53:35.058Z,18.50
2019-04-22T21:56:11.827Z,18.50
2019-04-22T21:58:38.538Z,18.40
2019-04-22T22:01:16.907Z,18.40
2019-04-22T22:03:38.837Z,18.30
2019-04-22T22:06:00.171Z,18.30
2019-04-22T22:08:42.402Z,18.20
2019-04-22T22:11:11.303Z,18.20
2019-04-22T22:13:44.480Z,18.10
2019-04-22T22:16:06.609Z,18.00
2019-04-22T22:18:29.040Z,17.90
2019-04-22T22:21:25.284Z,17.80
2019-04-22T22:23:59.574Z,17.80
2019-04-22T22:26:06.907Z,17.80
2019-04-22T22:29:02.090Z,17.70
2019-04-22T22:31:14.811Z,17.60
2019-04-22T22:33:41.775Z,17.50
2019-04-22T22:36:05.139Z,17.50
2019-04-22T22:38:35.007Z,17.50
2019-04-22T22:40:51.918Z,17.60
2019-04-22T22:43:30.096Z,17.50
2019-04-22T22:46:03.307Z,17.50
2019-04-22T22:48:44.701Z,17.50
2019-04-22T22:51:15.236Z,17.40
2019-04-22T22:53:44.689Z,17.40
2019-04-22T22:56:13.919Z,17.40
2019-04-22T22:58:41.023Z,17.40
2019-04-22T23:01:09.654Z,17.30
2019-04-22T23:04:00.638Z,17.30
2019-04-22T23:06:21.332Z,17.30
2019-04-22T23:08:46.086Z,17.20
2019-04-22T23:11:15.256Z,17.10
2019-04-22T23:13:42.425Z,17.00
2019-04-22T23:16:04.166Z,16.90
2019-04-22T23:18:23.800Z,16.90
2019-04-22T23:20:54.088Z,16.80
2019-04-22T23:23:50.067Z,16.70
2019-04-22T23:26:09.204Z,16.70
2019-04-22T23:28:40.024Z,16.70
2019-04-22T23:31:09.537Z,16.70
2019-04-22T23:33:49.444Z,16.80
2019-04-22T23:36:22.849Z,16.70
2019-04-22T23:39:00.054Z,16.60
2019-04-22T23:41:45.775Z,16.50
2019-04-22T23:44:13.489Z,16.60
2019-04-22T23:46:52.152Z,16.60
2019-04-22T23:49:22.248Z,16.50
2019-04-22T23:52:02.634Z,16.40
2019-04-22T23:54:35.883Z,16.40
2019-04-22T23:56:52.229Z,16.40
2019-04-22T23:59:38.285Z,16.30
